Time;durP1;ratioP1;P1;durP2;ratioP2;P2;SDS_P1;SDS_P2;PMS_P1;PMS_P2;Temp;Humidity;BMP_temperature;BMP_pressure;BME280_temperature;BME280_humidity;BME280_pressure;Samples;Min_cycle;Max_cycle;Signal;HPM_P1;HPM_P2
2022/05/11 00:00:50;;;;;;;7.17;6.47;;;11.00;99.90;11.50;97157.00;;;;5062414;28;20225;-67
2022/05/11 00:03:40;;;;;;;9.43;7.33;;;10.90;99.90;11.50;97157.00;;;;5044541;28;20252;-67
2022/05/11 00:06:29;;;;;;;8.03;7.33;;;10.70;99.90;11.30;97153.00;;;;5062281;28;20575;-67
2022/05/11 00:09:20;;;;;;;7.90;7.10;;;10.70;99.90;11.00;97150.00;;;;5068527;28;20666;-67
2022/05/11 00:12:10;;;;;;;8.67;6.83;;;10.40;99.90;10.90;97147.00;;;;5068191;28;20215;-67
2022/05/11 00:14:59;;;;;;;8.50;7.70;;;10.60;99.90;11.00;97147.00;;;;5069532;28;20246;-67
2022/05/11 00:17:48;;;;;;;9.30;7.90;;;9.80;99.90;11.20;97153.00;;;;5055851;28;20693;-67
2022/05/11 00:20:38;;;;;;;13.00;7.67;;;10.40;99.90;11.10;97151.00;;;;5083798;28;20594;-67
2022/05/11 00:23:26;;;;;;;8.33;7.17;;;10.30;99.90;10.90;97147.00;;;;5088199;28;20223;-67
2022/05/11 00:26:16;;;;;;;10.97;8.57;;;10.40;99.90;11.20;97149.00;;;;5086176;28;20195;-67
2022/05/11 00:29:05;;;;;;;11.77;8.60;;;10.30;99.90;11.30;97154.00;;;;5064262;28;20200;-67
2022/05/11 00:31:55;;;;;;;11.43;8.37;;;10.20;99.90;11.20;97146.00;;;;5071750;28;20206;-67
2022/05/11 00:34:43;;;;;;;8.83;7.77;;;10.20;99.90;11.10;97143.00;;;;5089137;28;20274;-67
2022/05/11 00:37:32;;;;;;;9.17;7.83;;;10.30;99.90;11.00;97140.00;;;;5088474;28;20207;-68
2022/05/11 00:40:23;;;;;;;8.83;7.93;;;10.20;99.90;10.70;97142.00;;;;5089672;28;20720;-67
2022/05/11 00:43:26;;;;;;;9.43;7.67;;;10.20;99.90;10.90;97145.00;;;;5088681;28;20214;-67
2022/05/11 00:46:22;;;;;;;9.70;8.73;;;10.20;99.90;10.80;97137.00;;;;5088533;28;20206;-67
2022/05/11 00:49:38;;;;;;;8.93;8.03;;;10.00;99.90;10.60;97136.00;;;;5087858;28;20321;-67
2022/05/11 00:52:37;;;;;;;9.20;7.27;;;10.10;99.90;10.40;97133.00;;;;5088735;28;20243;-67
2022/05/11 00:55:31;;;;;;;8.47;7.43;;;10.10;99.90;10.40;97132.00;;;;5087691;28;20598;-67
2022/05/11 00:58:24;;;;;;;9.40;8.43;;;9.80;99.90;10.80;97143.00;;;;5087681;28;20689;-67
2022/05/11 01:01:13;;;;;;;10.63;7.53;;;9.80;99.90;10.80;97130.00;;;;5088197;28;20219;-67
2022/05/11 01:04:08;;;;;;;10.03;9.00;;;9.80;99.90;11.10;97137.00;;;;5088505;28;20233;-67
2022/05/11 01:06:57;;;;;;;10.43;8.20;;;9.90;99.90;10.90;97131.00;;;;5087555;28;20222;-67
2022/05/11 01:09:46;;;;;;;9.07;8.13;;;10.10;99.90;10.70;97136.00;;;;5088010;28;20214;-67
2022/05/11 01:12:40;;;;;;;8.13;7.27;;;9.90;99.90;10.60;97137.00;;;;5088835;28;20597;-67
2022/05/11 01:15:34;;;;;;;8.40;7.60;;;10.00;99.90;10.60;97133.00;;;;5086631;28;20686;-67
2022/05/11 01:18:24;;;;;;;9.20;8.30;;;9.80;99.90;10.70;97126.00;;;;5068718;28;20204;-67
2022/05/11 01:21:13;;;;;;;10.83;9.07;;;9.80;99.90;10.80;97131.00;;;;5057911;28;20231;-67
2022/05/11 01:24:24;;;;;;;11.10;8.17;;;9.80;99.90;10.80;97133.00;;;;5067863;28;20216;-67
2022/05/11 01:27:31;;;;;;;9.23;8.30;;;9.80;99.90;10.60;97132.00;;;;5065272;28;20203;-67
2022/05/11 01:30:24;;;;;;;9.37;8.17;;;9.80;99.90;10.60;97132.00;;;;5063995;28;20685;-67
2022/05/11 01:33:17;;;;;;;9.77;8.77;;;9.70;99.90;10.50;97127.00;;;;5083240;28;20206;-67
2022/05/11 01:36:17;;;;;;;9.40;8.23;;;9.80;99.90;10.20;97142.00;;;;5092871;28;20199;-67
2022/05/11 01:39:09;;;;;;;9.87;8.40;;;9.80;99.90;9.90;97136.00;;;;5091300;28;20596;-67
2022/05/11 01:41:59;;;;;;;9.60;8.53;;;9.50;99.90;9.70;97131.00;;;;5092321;28;20219;-67
2022/05/11 01:44:48;;;;;;;8.80;7.97;;;9.30;99.90;9.70;97134.00;;;;5090783;28;20524;-67
2022/05/11 01:47:36;;;;;;;9.50;8.53;;;9.30;99.90;9.90;97137.00;;;;5090866;28;20203;-67
2022/05/11 01:50:27;;;;;;;12.87;9.20;;;9.30;99.90;10.10;97136.00;;;;5090997;28;20211;-67
2022/05/11 01:53:16;;;;;;;9.03;7.97;;;9.50;99.90;10.10;97136.00;;;;5072975;28;20210;-67
2022/05/11 01:56:06;;;;;;;16.23;8.43;;;9.50;99.90;10.10;97139.00;;;;5063589;28;20219;-67
2022/05/11 01:58:56;;;;;;;11.23;8.80;;;9.40;99.90;10.10;97142.00;;;;5070271;28;20584;-67
2022/05/11 02:01:45;;;;;;;10.13;9.03;;;9.40;99.90;10.30;97138.00;;;;5060049;28;20223;-67
2022/05/11 02:07:52;;;;;;;9.77;8.83;;;9.60;99.90;10.60;97136.00;;;;5067610;28;20244;-67
2022/05/11 02:10:41;;;;;;;11.43;8.73;;;9.50;99.90;10.60;97139.00;;;;5070423;28;20677;-67
2022/05/11 02:13:30;;;;;;;9.97;8.97;;;9.60;99.90;10.40;97147.00;;;;5070173;28;20238;-67
2022/05/11 02:16:20;;;;;;;8.83;7.93;;;9.80;99.90;10.10;97140.00;;;;5057349;28;20200;-67
2022/05/11 02:19:09;;;;;;;11.50;8.70;;;9.50;99.90;10.10;97144.00;;;;5067187;28;20207;-67
2022/05/11 02:21:58;;;;;;;10.60;8.27;;;9.30;99.90;10.20;97133.00;;;;5063429;28;20223;-67
2022/05/11 02:24:47;;;;;;;9.97;8.97;;;9.50;99.90;10.30;97133.00;;;;5069608;28;20227;-67
2022/05/11 02:27:36;;;;;;;9.57;8.57;;;9.40;99.90;10.10;97130.00;;;;5071420;28;20211;-67
2022/05/11 02:30:29;;;;;;;10.17;9.17;;;9.90;99.90;10.00;97127.00;;;;5079506;28;20251;-67
2022/05/11 02:33:20;;;;;;;9.03;8.17;;;9.20;99.90;10.00;97129.00;;;;5073758;28;20200;-67
2022/05/11 02:36:09;;;;;;;9.80;8.80;;;9.20;99.90;9.60;97120.00;;;;5069900;28;20215;-67
2022/05/11 02:38:58;;;;;;;9.87;8.87;;;9.10;99.90;9.60;97123.00;;;;5067920;28;20200;-67
2022/05/11 02:41:46;;;;;;;9.80;8.80;;;9.20;99.90;9.60;97122.00;;;;5069513;28;20231;-67
2022/05/11 02:44:35;;;;;;;9.73;8.80;;;9.10;99.90;9.90;97126.00;;;;5068940;28;20632;-67
2022/05/11 02:47:24;;;;;;;9.27;8.37;;;9.00;99.90;9.50;97131.00;;;;5068822;28;20219;-67
2022/05/11 02:50:18;;;;;;;10.17;8.60;;;9.40;99.90;9.30;97129.00;;;;5068835;28;20196;-66
2022/05/11 02:53:09;;;;;;;14.10;8.63;;;8.90;99.90;9.20;97134.00;;;;5070210;28;20214;-67
2022/05/11 02:55:59;;;;;;;10.40;9.37;;;9.00;99.90;9.50;97131.00;;;;5064415;28;20199;-67
2022/05/11 02:58:48;;;;;;;10.27;8.73;;;8.90;99.90;9.30;97123.00;;;;5068744;28;20200;-67
2022/05/11 03:01:36;;;;;;;11.47;9.27;;;8.80;99.90;9.60;97130.00;;;;5068299;28;20228;-67
2022/05/11 03:04:26;;;;;;;13.37;10.30;;;8.90;99.90;9.80;97129.00;;;;5070193;28;20230;-66
2022/05/11 03:07:17;;;;;;;12.33;9.63;;;9.00;99.90;9.60;97113.00;;;;5069490;28;20207;-67
2022/05/11 03:10:08;;;;;;;11.00;9.93;;;8.90;99.90;9.30;97117.00;;;;5070227;28;20203;-67
2022/05/11 03:12:57;;;;;;;12.47;9.23;;;9.10;99.90;9.00;97120.00;;;;5068731;28;20196;-67
2022/05/11 03:15:47;;;;;;;9.50;8.53;;;8.70;99.90;9.00;97123.00;;;;6217603;22;20627;-66
2022/05/11 03:18:36;;;;;;;13.97;9.20;;;8.70;99.90;8.80;97126.00;;;;6188307;23;20191;-66
2022/05/11 03:21:26;;;;;;;11.37;8.90;;;8.60;99.90;9.20;97124.00;;;;6189983;23;20176;-66
2022/05/11 03:24:15;;;;;;;17.07;11.27;;;8.60;99.90;9.40;97131.00;;;;6189713;23;20204;-67
2022/05/11 03:27:04;;;;;;;10.23;8.80;;;8.70;99.90;9.30;97126.00;;;;6219646;23;20180;-66
2022/05/11 03:29:54;;;;;;;9.73;8.70;;;8.80;99.90;9.00;97118.00;;;;6218511;23;20180;-66
2022/05/11 03:35:50;;;;;;;9.33;8.07;;;8.60;99.90;9.00;97126.00;;;;6220055;23;20183;-66
2022/05/11 03:38:39;;;;;;;9.80;8.80;;;8.60;99.90;8.80;97131.00;;;;6219580;23;20184;-66
2022/05/11 03:41:28;;;;;;;11.83;10.63;;;8.70;99.90;9.10;97127.00;;;;6218031;23;20623;-66
2022/05/11 03:44:17;;;;;;;12.03;9.87;;;8.50;99.90;9.30;97123.00;;;;6218369;23;20227;-66
2022/05/11 03:47:07;;;;;;;11.13;9.43;;;8.70;99.90;9.20;97122.00;;;;6219291;23;20176;-66
2022/05/11 03:49:57;;;;;;;14.03;8.97;;;8.80;99.90;8.80;97114.00;;;;6218054;23;20184;-66
2022/05/11 03:52:45;;;;;;;12.87;10.30;;;8.50;99.90;9.00;97123.00;;;;6218504;23;20180;-66
2022/05/11 03:55:34;;;;;;;13.33;10.67;;;8.40;99.90;9.00;97118.00;;;;6219785;23;20200;-66
2022/05/11 03:58:23;;;;;;;12.47;10.33;;;8.60;99.90;9.00;97115.00;;;;6217293;23;20845;-67
2022/05/11 04:01:14;;;;;;;12.47;10.73;;;8.50;99.90;9.20;97128.00;;;;6220540;23;20180;-66
2022/05/11 04:04:04;;;;;;;12.23;10.67;;;8.70;99.90;9.30;97121.00;;;;6219921;23;20706;-66
2022/05/11 04:06:54;;;;;;;10.73;9.67;;;8.70;99.90;9.50;97122.00;;;;6219595;23;20184;-66
2022/05/11 04:09:43;;;;;;;10.50;9.10;;;8.50;99.90;9.30;97120.00;;;;6218042;23;20259;-66
2022/05/11 04:12:32;;;;;;;11.90;10.67;;;8.80;99.90;9.50;97127.00;;;;6218717;23;20234;-69
2022/05/11 04:15:21;;;;;;;13.10;11.50;;;8.70;99.90;9.70;97122.00;;;;6219010;23;20212;-67
2022/05/11 04:18:09;;;;;;;11.83;9.77;;;8.80;99.90;9.50;97126.00;;;;6215753;23;20184;-67
2022/05/11 04:20:58;;;;;;;11.57;10.37;;;8.70;99.90;9.70;97127.00;;;;6218818;23;20176;-67
2022/05/11 04:23:48;;;;;;;12.20;11.00;;;8.80;99.90;9.80;97131.00;;;;6216359;23;20666;-67
2022/05/11 04:26:37;;;;;;;14.70;11.03;;;8.90;99.90;9.80;97130.00;;;;6210707;23;20518;-67
2022/05/11 04:29:26;;;;;;;12.30;11.03;;;8.90;99.90;10.10;97125.00;;;;6211788;23;20185;-67
2022/05/11 04:32:15;;;;;;;10.63;8.80;;;9.00;99.90;9.80;97132.00;;;;6208319;23;20180;-67
2022/05/11 04:35:06;;;;;;;10.57;9.40;;;9.40;99.90;9.90;97134.00;;;;6212862;23;20204;-67
2022/05/11 04:37:55;;;;;;;11.63;10.23;;;9.20;99.90;10.30;97122.00;;;;6209017;23;20188;-67
2022/05/11 04:40:45;;;;;;;12.80;10.63;;;9.20;99.90;10.40;97115.00;;;;6210766;23;20180;-66
2022/05/11 04:43:34;;;;;;;12.57;10.33;;;9.40;99.90;10.30;97129.00;;;;6212719;23;20607;-67
2022/05/11 04:46:22;;;;;;;18.87;11.80;;;9.60;99.90;10.40;97123.00;;;;6212545;23;20215;-67
2022/05/11 04:49:20;;;;;;;15.57;12.70;;;9.60;99.90;10.80;97136.00;;;;6210282;23;20177;-67
2022/05/11 04:52:14;;;;;;;12.93;11.73;;;9.80;99.90;10.70;97129.00;;;;6209731;23;20180;-66
2022/05/11 04:55:03;;;;;;;28.97;19.23;;;9.80;99.90;11.00;97136.00;;;;6210416;23;20217;-67
2022/05/11 04:57:53;;;;;;;15.45;12.60;;;9.90;99.90;11.20;97129.00;;;;6206341;23;20195;-67
2022/05/11 05:00:42;;;;;;;12.65;10.70;;;10.20;99.90;11.10;97129.00;;;;6210779;23;20189;-67
2022/05/11 05:03:31;;;;;;;12.07;10.40;;;10.20;99.90;11.40;97137.00;;;;6210436;23;20177;-67
2022/05/11 05:06:19;;;;;;;10.07;8.90;;;10.30;99.90;11.40;97126.00;;;;6210306;23;20207;-67
2022/05/11 05:09:08;;;;;;;12.47;9.47;;;10.40;99.90;11.70;97134.00;;;;6209166;23;20701;-67
2022/05/11 05:11:57;;;;;;;16.67;9.57;;;10.60;99.90;11.90;97146.00;;;;6212520;23;20186;-67
2022/05/11 05:14:47;;;;;;;10.53;9.37;;;10.70;99.90;11.90;97140.00;;;;6210205;23;20208;-66
2022/05/11 05:17:37;;;;;;;11.70;9.17;;;10.90;99.90;11.90;97131.00;;;;6211642;23;20184;-67
2022/05/11 05:20:26;;;;;;;10.73;9.60;;;11.00;99.90;12.10;97144.00;;;;6207200;23;20655;-66
2022/05/11 05:23:15;;;;;;;14.13;10.20;;;10.90;99.90;12.10;97137.00;;;;6207138;23;20181;-67
2022/05/11 05:26:04;;;;;;;10.77;9.67;;;11.00;99.90;12.40;97133.00;;;;6209517;23;20208;-67
2022/05/11 05:32:01;;;;;;;12.43;9.87;;;11.40;99.90;12.90;97135.00;;;;6210230;23;20176;-67
2022/05/11 05:34:50;;;;;;;15.90;8.43;;;11.70;99.90;13.00;97135.00;;;;6211416;23;20212;-67
2022/05/11 05:37:39;;;;;;;12.37;9.60;;;11.80;99.90;13.10;97136.00;;;;6208286;23;20185;-67
2022/05/11 05:40:28;;;;;;;10.37;8.73;;;12.10;99.90;13.10;97140.00;;;;6209226;23;20189;-67
2022/05/11 05:43:16;;;;;;;10.47;8.70;;;12.00;99.90;13.10;97143.00;;;;6208411;23;20177;-67
2022/05/11 05:46:06;;;;;;;10.57;9.47;;;12.20;99.90;13.20;97137.00;;;;6209473;23;20207;-66
2022/05/11 05:48:56;;;;;;;12.80;8.90;;;12.30;99.90;13.40;97139.00;;;;6208384;23;20180;-67
2022/05/11 05:51:45;;;;;;;10.30;9.23;;;12.30;99.90;13.60;97134.00;;;;6210705;23;20346;-67
2022/05/11 05:54:35;;;;;;;13.03;9.53;;;12.50;99.90;14.10;97142.00;;;;6209388;23;20215;-67
2022/05/11 05:57:26;;;;;;;9.93;8.10;;;12.70;99.90;14.30;97140.00;;;;6210233;23;20187;-67
2022/05/11 06:00:16;;;;;;;10.33;8.60;;;13.00;99.90;14.50;97135.00;;;;6208357;23;20660;-67
2022/05/11 06:03:05;;;;;;;13.00;9.33;;;13.00;99.90;14.70;97132.00;;;;6208929;23;20189;-67
2022/05/11 06:05:56;;;;;;;12.60;8.53;;;13.40;99.90;15.00;97139.00;;;;6211017;23;20200;-67
2022/05/11 06:08:45;;;;;;;11.67;8.87;;;13.40;99.90;15.50;97139.00;;;;6209566;23;20586;-67
2022/05/11 06:11:33;;;;;;;12.47;7.23;;;13.80;99.90;15.50;97141.00;;;;6207344;23;20192;-67
2022/05/11 06:14:22;;;;;;;9.73;8.80;;;13.80;99.90;16.00;97141.00;;;;6207774;23;20208;-67
2022/05/11 06:17:18;;;;;;;10.37;7.60;;;14.30;99.90;16.30;97145.00;;;;6206321;23;20188;-67
2022/05/11 06:20:09;;;;;;;10.67;7.63;;;14.50;99.90;16.40;97135.00;;;;6208280;23;20185;-67
2022/05/11 06:23:01;;;;;;;9.07;7.83;;;14.50;99.90;16.60;97153.00;;;;6206133;23;20184;-67
2022/05/11 06:25:51;;;;;;;12.97;8.37;;;15.00;99.90;16.80;97152.00;;;;6209124;23;20676;-67
2022/05/11 06:28:41;;;;;;;7.53;6.80;;;15.10;99.90;16.50;97143.00;;;;6206500;23;20188;-67
2022/05/11 06:31:39;;;;;;;9.63;6.67;;;15.30;99.90;16.90;97148.00;;;;6210452;23;20180;-67
2022/05/11 06:34:27;;;;;;;7.90;6.70;;;15.40;99.90;16.70;97151.00;;;;6208084;23;20211;-67
2022/05/11 06:37:16;;;;;;;6.70;6.00;;;15.30;99.90;16.90;97145.00;;;;6208055;23;20191;-67
2022/05/11 06:40:08;;;;;;;9.20;7.57;;;15.80;99.90;17.40;97140.00;;;;6207478;23;20184;-67
2022/05/11 06:42:57;;;;;;;7.87;5.97;;;15.90;99.90;17.40;97151.00;;;;6208921;23;20188;-67
2022/05/11 06:45:46;;;;;;;9.90;6.27;;;15.90;99.90;17.40;97144.00;;;;6207389;23;20247;-67
2022/05/11 06:48:35;;;;;;;7.57;5.83;;;16.20;99.90;18.00;97139.00;;;;6210137;23;20181;-67
2022/05/11 06:51:24;;;;;;;9.03;6.37;;;16.50;99.90;17.70;97144.00;;;;6208102;23;20189;-67
2022/05/11 07:00:29;;;;;;;11.93;6.80;;;16.70;99.90;18.50;97142.00;;;;6207678;23;20188;-66
2022/05/11 07:03:18;;;;;;;7.53;6.73;;;17.00;99.90;18.60;97146.00;;;;6210919;23;20807;-67
2022/05/11 07:06:08;;;;;;;7.73;5.93;;;17.20;99.90;18.90;97144.00;;;;6210191;22;20197;-67
2022/05/11 07:08:57;;;;;;;6.30;5.20;;;17.30;99.90;18.60;97142.00;;;;6207735;23;20183;-67
2022/05/11 07:14:57;;;;;;;6.07;5.30;;;17.60;99.90;19.40;97136.00;;;;6207962;23;20208;-67
2022/05/11 07:17:50;;;;;;;5.10;4.60;;;17.80;99.90;19.60;97131.00;;;;6209869;23;20186;-67
2022/05/11 07:20:39;;;;;;;9.13;5.53;;;17.80;99.90;19.80;97128.00;;;;6206339;23;20192;-67
2022/05/11 07:23:28;;;;;;;9.53;7.87;;;17.90;99.90;20.00;97135.00;;;;6206039;23;20196;-66
2022/05/11 07:26:20;;;;;;;7.17;5.50;;;18.40;99.90;20.30;97125.00;;;;6208953;23;20204;-67
2022/05/11 07:29:09;;;;;;;8.80;5.70;;;18.40;99.90;20.50;97125.00;;;;6206995;23;20181;-67
2022/05/11 07:32:01;;;;;;;5.77;4.60;;;18.80;99.90;20.80;97120.00;;;;6209922;23;20180;-67
2022/05/11 07:34:50;;;;;;;5.37;4.87;;;18.80;99.90;21.20;97124.00;;;;6211233;22;20204;-67
2022/05/11 07:37:39;;;;;;;8.47;4.70;;;19.30;99.90;21.00;97119.00;;;;6206821;23;20195;-66
2022/05/11 07:40:29;;;;;;;8.37;5.77;;;19.30;99.90;21.40;97123.00;;;;6209037;23;20659;-67
2022/05/11 07:43:18;;;;;;;5.00;4.50;;;19.40;99.90;21.40;97125.00;;;;6207342;23;20185;-67
2022/05/11 07:46:07;;;;;;;8.00;5.97;;;19.60;99.90;21.70;97115.00;;;;6209726;23;20200;-67
2022/05/11 07:48:59;;;;;;;8.17;5.73;;;19.80;99.90;21.90;97121.00;;;;6208947;23;20180;-67
2022/05/11 07:51:49;;;;;;;8.07;5.37;;;20.00;99.90;22.10;97114.00;;;;6206768;23;20188;-67
2022/05/11 07:54:40;;;;;;;5.97;5.37;;;20.20;99.90;22.30;97122.00;;;;6207955;23;20201;-67
2022/05/11 08:00:37;;;;;;;5.73;4.70;;;20.80;99.90;22.50;97115.00;;;;6207306;23;20199;-67
2022/05/11 08:03:26;;;;;;;8.33;5.73;;;20.70;99.90;22.70;97118.00;;;;6209201;23;20203;-67
2022/05/11 08:06:16;;;;;;;4.83;4.30;;;20.70;99.90;23.00;97108.00;;;;6210233;23;20204;-67
2022/05/11 08:09:05;;;;;;;6.40;4.70;;;20.80;99.90;23.00;97114.00;;;;6209168;23;20199;-67
2022/05/11 08:11:56;;;;;;;6.83;5.30;;;21.10;99.90;23.10;97107.00;;;;6210756;23;20181;-67
2022/05/11 08:14:45;;;;;;;6.40;5.30;;;21.10;99.90;23.30;97106.00;;;;6211083;23;20208;-67
2022/05/11 08:17:37;;;;;;;5.47;5.00;;;21.20;99.90;23.60;97114.00;;;;6210444;23;20185;-67
2022/05/11 08:20:29;;;;;;;6.80;5.37;;;21.40;99.90;23.70;97100.00;;;;6210060;23;20191;-67
2022/05/11 08:23:21;;;;;;;13.53;4.83;;;21.80;99.90;23.90;97108.00;;;;6208508;23;20188;-67
2022/05/11 08:26:10;;;;;;;4.60;4.13;;;21.90;99.90;24.10;97103.00;;;;6208751;23;20200;-67
2022/05/11 08:28:59;;;;;;;6.77;4.60;;;22.10;99.90;24.20;97109.00;;;;6208689;23;20192;-67
2022/05/11 08:34:56;;;;;;;4.57;4.17;;;22.20;99.90;24.50;97103.00;;;;6208439;23;20207;-67
2022/05/11 08:37:45;;;;;;;4.47;4.07;;;22.10;99.90;24.80;97097.00;;;;6209852;23;20189;-67
2022/05/11 08:40:47;;;;;;;4.97;4.50;;;22.60;99.90;25.00;97101.00;;;;6209581;23;20192;-67
2022/05/11 08:43:36;;;;;;;7.00;4.20;;;22.80;99.90;25.40;97105.00;;;;6211313;23;20177;-67
2022/05/11 08:46:47;;;;;;;5.53;4.60;;;23.00;99.90;25.50;97103.00;;;;6208112;23;20572;-67
2022/05/11 08:49:50;;;;;;;4.17;3.77;;;23.20;99.90;25.60;97095.00;;;;6207930;23;20195;-67
2022/05/11 08:52:51;;;;;;;6.20;3.90;;;23.50;99.90;25.80;97101.00;;;;6209112;23;20192;-67
2022/05/11 08:55:46;;;;;;;6.60;3.20;;;23.60;98.50;26.10;97099.00;;;;6207826;23;20205;-67
2022/05/11 08:58:42;;;;;;;8.37;4.40;;;23.70;94.70;26.10;97090.00;;;;6208164;23;20185;-67
2022/05/11 09:01:43;;;;;;;5.17;3.40;;;23.80;92.70;26.30;97084.00;;;;6210551;23;20193;-67
2022/05/11 09:04:41;;;;;;;3.63;3.33;;;24.00;91.00;26.00;97089.00;;;;6208074;23;20201;-67
2022/05/11 09:07:41;;;;;;;6.27;3.93;;;24.10;90.60;26.40;97092.00;;;;6209232;23;20205;-67
2022/05/11 09:10:33;;;;;;;3.93;3.30;;;24.30;90.00;26.30;97095.00;;;;6208679;23;20532;-67
2022/05/11 09:13:26;;;;;;;3.77;3.40;;;24.60;87.60;26.30;97086.00;;;;6210582;23;20189;-67
2022/05/11 09:16:25;;;;;;;3.07;2.87;;;24.50;78.10;26.50;97087.00;;;;6208949;23;20189;-67
2022/05/11 09:19:21;;;;;;;3.87;3.57;;;24.50;73.60;27.10;97089.00;;;;6210204;23;20350;-67
2022/05/11 09:22:17;;;;;;;4.23;3.37;;;24.60;73.80;27.30;97086.00;;;;6212412;22;20255;-67
2022/05/11 09:25:20;;;;;;;3.57;3.27;;;24.90;74.60;27.20;97085.00;;;;6210785;23;20208;-67
2022/05/11 09:28:24;;;;;;;3.37;3.07;;;25.10;73.30;27.00;97082.00;;;;6210469;23;20199;-67
2022/05/11 09:31:24;;;;;;;3.27;2.87;;;25.30;64.90;26.80;97083.00;;;;6208492;23;20182;-67
2022/05/11 09:34:25;;;;;;;5.37;3.53;;;25.30;67.30;27.40;97071.00;;;;6210982;23;20227;-67
2022/05/11 09:37:35;;;;;;;2.50;2.20;;;25.30;64.40;26.90;97074.00;;;;6210294;23;20960;-68
2022/05/11 09:40:25;;;;;;;4.57;2.97;;;25.50;62.80;26.10;97073.00;;;;6209294;23;20186;-68
2022/05/11 09:43:34;;;;;;;3.50;3.20;;;25.20;59.80;27.10;97069.00;;;;6207415;23;20191;-67
2022/05/11 09:46:30;;;;;;;2.83;2.63;;;25.20;60.00;27.80;97067.00;;;;6210457;23;20649;-67
2022/05/11 09:49:28;;;;;;;4.60;2.70;;;25.40;60.00;28.00;97071.00;;;;6211457;23;20183;-67
2022/05/11 09:52:30;;;;;;;3.40;3.10;;;25.60;61.80;28.50;97068.00;;;;6212625;22;20190;-67
2022/05/11 09:55:26;;;;;;;3.07;2.87;;;26.00;62.10;28.60;97056.00;;;;6208324;23;20202;-67
2022/05/11 09:58:30;;;;;;;3.83;3.43;;;26.10;58.70;28.50;97059.00;;;;6210311;23;20196;-67
2022/05/11 10:01:27;;;;;;;3.90;2.97;;;26.50;57.40;28.00;97052.00;;;;6207280;23;20940;-67
2022/05/11 10:04:18;;;;;;;4.13;2.87;;;26.40;56.90;29.20;97048.00;;;;6210337;23;20662;-67
2022/05/11 10:07:25;;;;;;;3.27;2.73;;;26.60;58.30;29.20;97044.00;;;;6206662;23;20760;-67
2022/05/11 10:10:27;;;;;;;2.73;2.53;;;26.90;58.70;29.90;97044.00;;;;6209627;23;20184;-67
2022/05/11 10:13:26;;;;;;;3.70;3.40;;;27.10;68.00;28.90;97041.00;;;;6208723;23;20360;-67
2022/05/11 10:22:52;;;;;;;3.13;2.83;;;27.50;56.30;30.10;97024.00;;;;6206603;23;20193;-67
2022/05/11 10:25:43;;;;;;;2.70;2.47;;;27.60;56.20;30.40;97034.00;;;;6209455;23;20198;-67
2022/05/11 10:28:45;;;;;;;3.10;2.90;;;27.90;56.80;30.80;97027.00;;;;6207859;23;20196;-67
2022/05/11 10:31:46;;;;;;;2.70;2.50;;;28.20;57.00;31.10;97030.00;;;;6210586;23;20179;-67
2022/05/11 10:34:47;;;;;;;3.60;2.50;;;28.60;56.40;31.10;97022.00;;;;6209688;23;20213;-67
2022/05/11 10:38:03;;;;;;;3.40;2.80;;;28.80;56.50;30.20;97018.00;;;;6208794;23;20210;-67
2022/05/11 10:41:01;;;;;;;4.53;2.40;;;29.00;53.00;31.00;97017.00;;;;6211293;23;20187;-67
2022/05/11 10:44:03;;;;;;;4.90;3.17;;;29.00;53.70;31.30;97005.00;;;;6210231;23;20210;-67
2022/05/11 10:47:07;;;;;;;4.03;3.37;;;29.20;55.30;30.30;97044.00;;;;6207285;23;20892;-67
2022/05/11 10:50:11;;;;;;;3.33;3.03;;;29.00;53.50;30.80;97007.00;;;;6208683;23;20627;-67
2022/05/11 10:53:19;;;;;;;3.47;3.17;;;29.00;53.10;31.50;96998.00;;;;6208904;23;20235;-67
2022/05/11 10:56:29;;;;;;;3.33;3.03;;;29.20;53.80;31.50;96999.00;;;;6207506;23;20658;-67
2022/05/11 10:59:45;;;;;;;4.68;3.10;;;29.50;61.00;31.80;96997.00;;;;6205898;23;20352;-67
2022/05/11 11:03:02;;;;;;;3.38;3.08;;;29.70;59.00;30.80;96990.00;;;;6202171;23;20395;-68
2022/05/11 11:09:33;;;;;;;3.70;3.00;;;29.70;59.30;31.60;96982.00;;;;6204702;23;20352;-67
2022/05/11 11:12:41;;;;;;;6.53;3.30;;;29.80;58.70;31.20;96983.00;;;;6204542;23;20382;-68
2022/05/11 11:15:33;;;;;;;3.67;3.37;;;29.80;59.30;31.60;96985.00;;;;6204838;23;20711;-68
2022/05/11 11:18:32;;;;;;;3.08;2.88;;;29.80;51.10;32.00;96977.00;;;;6206802;23;20207;-67
2022/05/11 11:21:22;;;;;;;5.47;3.28;;;29.80;53.40;32.50;96984.00;;;;6208618;23;20512;-67
2022/05/11 11:24:22;;;;;;;2.83;2.63;;;30.00;55.90;32.80;96974.00;;;;6208347;23;20204;-67
2022/05/11 11:27:11;;;;;;;3.08;2.55;;;;;33.00;96971.00;;;;6205489;23;20184;-68
2022/05/11 11:30:23;;;;;;;4.88;3.60;;;30.60;51.50;33.10;96966.00;;;;6206672;23;20195;-68
2022/05/11 11:33:24;;;;;;;3.15;2.58;;;30.80;51.30;31.40;96957.00;;;;6206964;23;20661;-68
2022/05/11 11:39:09;;;;;;;4.25;3.10;;;30.90;48.90;32.20;96952.00;;;;5062326;27;21652;-67
2022/05/11 11:42:08;;;;;;;3.85;3.25;;;30.70;49.50;32.80;96957.00;;;;5043090;28;20209;-68
2022/05/11 11:44:57;;;;;;;4.70;3.35;;;30.70;49.50;32.50;96945.00;;;;5035702;28;20245;-68
2022/05/11 11:48:02;;;;;;;4.18;2.67;;;30.80;49.30;32.30;96953.00;;;;5078115;28;20689;-67
2022/05/11 11:50:54;;;;;;;3.15;2.95;;;30.70;48.90;33.40;96948.00;;;;5084305;28;20598;-67
2022/05/11 11:53:57;;;;;;;3.55;3.20;;;30.90;49.90;32.40;96950.00;;;;5087654;28;20222;-68
2022/05/11 11:56:48;;;;;;;3.35;3.05;;;31.00;47.60;32.00;96938.00;;;;5085130;28;20201;-67
2022/05/11 11:59:41;;;;;;;5.78;3.28;;;31.00;45.50;32.90;96929.00;;;;5080972;28;20205;-68
2022/05/11 12:02:37;;;;;;;5.18;3.20;;;30.90;47.50;33.70;96929.00;;;;5080383;28;20215;-67
2022/05/11 12:05:40;;;;;;;5.45;3.53;;;31.10;50.10;33.40;96933.00;;;;5085257;28;20728;-68
2022/05/11 12:15:04;;;;;;;4.63;2.80;;;31.90;49.10;35.30;96929.00;;;;5081839;28;20229;-68
2022/05/11 12:17:53;;;;;;;4.03;3.67;;;32.30;47.70;34.50;96929.00;;;;5083930;28;20227;-68
2022/05/11 12:20:44;;;;;;;3.42;3.10;;;32.40;46.90;34.30;96924.00;;;;5083709;28;20196;-68
2022/05/11 12:23:39;;;;;;;2.90;2.70;;;32.50;48.80;34.30;96930.00;;;;5082017;28;20204;-68
2022/05/11 12:26:32;;;;;;;3.40;3.00;;;32.40;46.70;35.20;96929.00;;;;5082148;28;20211;-68
2022/05/11 12:32:35;;;;;;;2.90;2.67;;;32.80;46.40;35.60;96914.00;;;;5086473;28;20207;-68
2022/05/11 12:35:32;;;;;;;3.42;3.00;;;33.00;46.90;36.60;96923.00;;;;5085758;28;20222;-68
2022/05/11 12:38:31;;;;;;;3.75;2.80;;;33.30;48.00;36.30;96904.00;;;;5076184;28;20226;-69
2022/05/11 12:41:21;;;;;;;3.65;3.35;;;33.70;47.60;35.80;96906.00;;;;5080198;28;20210;-68
2022/05/11 12:44:16;;;;;;;2.95;2.75;;;33.80;46.20;35.60;96906.00;;;;5085341;28;20231;-68
2022/05/11 12:47:07;;;;;;;4.80;3.50;;;33.80;45.90;34.00;96909.00;;;;5079408;28;20199;-69
2022/05/11 12:49:57;;;;;;;3.15;2.50;;;33.40;44.50;35.50;96901.00;;;;5069064;28;20769;-68
2022/05/11 12:52:45;;;;;;;6.10;3.67;;;33.30;46.00;34.40;96899.00;;;;5066715;28;20222;-68
2022/05/11 12:55:38;;;;;;;3.03;2.67;;;33.10;44.00;35.20;96890.00;;;;5071793;28;20627;-69
2022/05/11 12:58:29;;;;;;;12.50;7.53;;;33.00;46.70;35.80;96897.00;;;;5071416;28;20238;-69
2022/05/11 13:01:21;;;;;;;3.90;2.97;;;33.30;46.90;36.40;96894.00;;;;5069731;28;20208;-69
2022/05/11 13:04:21;;;;;;;3.83;2.85;;;33.50;45.90;34.40;96892.00;;;;5071132;28;20228;-69
2022/05/11 13:07:12;;;;;;;12.23;6.05;;;33.60;43.90;34.90;96885.00;;;;5068454;28;20195;-69
2022/05/11 13:10:03;;;;;;;9.40;5.97;;;33.40;44.80;35.80;96879.00;;;;5070386;28;20231;-69
2022/05/11 13:12:56;;;;;;;9.18;4.60;;;33.50;45.90;36.40;96877.00;;;;5069922;28;20218;-69
2022/05/11 13:15:47;;;;;;;3.40;3.10;;;33.60;45.90;34.00;96871.00;;;;5069141;28;20243;-69
2022/05/11 13:18:38;;;;;;;7.38;4.22;;;33.40;43.80;35.10;96868.00;;;;5067540;28;20219;-69
2022/05/11 13:21:35;;;;;;;11.93;4.70;;;33.20;44.60;35.80;96866.00;;;;5067592;28;20200;-69
2022/05/11 13:24:40;;;;;;;6.57;3.53;;;33.30;45.70;35.50;96864.00;;;;5068545;28;20601;-69
2022/05/11 13:27:37;;;;;;;3.92;2.80;;;33.40;44.80;33.10;96856.00;;;;5068244;28;20207;-70
2022/05/11 13:30:36;;;;;;;4.63;3.88;;;33.00;44.40;35.00;96856.00;;;;5066146;28;20208;-69
2022/05/11 13:33:44;;;;;;;3.25;2.80;;;33.00;44.10;33.30;96852.00;;;;5073082;28;20200;-70
2022/05/11 13:36:42;;;;;;;3.08;2.80;;;32.90;44.00;32.30;96843.00;;;;5068378;28;20207;-69